Heroic Leader — C6ZD2 — position and weather

sailwx.info

Track history (hours):
 
Tides and Currents Weather Stations Pressure Air Temp Water Temp Dewpoint Dewpoint Depression Visibility Wind Speed Wind Dir Waves Ship Positions

Heroic Leader

Last reported at 2017-Oct-23 02:41 UTC. Time now 2017-Oct-23 06:19 UTC.
Position N 37°45' W 000°21'.

Length 200 m; draft 9.5 m.

Type: Cargo ship. MMSI: 311052700.

Date/timePositionNaut miles runAvg speedWind from/ knotsBaromVisibWave heightAir tempDewpointWater temp
2017-Oct-23 02:41N 37°45' W 000°21'319.4
2017-Oct-23 02:30N 37°42' W 000°23'1019.4
2017-Oct-23 02:00N 37°34' W 000°30'1019.2
2017-Oct-23 01:30N 37°27' W 000°39'1019.1
2017-Oct-23 01:00N 37°21' W 000°48'1119.2
2017-Oct-23 00:25N 37°13' W 000°59'21918.9
2017-Oct-22 12:47N 35°59' W 005°16'518.5
2017-Oct-22 12:30N 35°58' W 005°22'259 9.2
2017-Oct-21 08:16N 38°14' W 009°58'518.3
2017-Oct-21 08:00N 38°19' W 009°59'917.9
2017-Oct-21 07:30N 38°28' W 010°02'917.5
2017-Oct-21 07:00N 38°36' W 010°04'917.6
2017-Oct-21 06:30N 38°45' W 010°06'917.6
2017-Oct-21 06:00N 38°54' W 010°06'918.2
2017-Oct-21 05:30N 39°03' W 010°06'918.3
2017-Oct-21 05:00N 39°12' W 010°06'1217.9
2017-Oct-21 04:22N 39°23' W 010°06'66815.9
2017-Oct-19 10:26N 49°36' W 003°55'1216.7
2017-Oct-19 09:45N 49°42' W 003°40'616.3
2017-Oct-19 09:24N 49°45' W 003°32'615.9
2017-Oct-19 09:00N 49°48' W 003°24'815.2
2017-Oct-19 08:30N 49°52' W 003°13'714.7
2017-Oct-19 08:00N 49°55' W 003°03'714.3
2017-Oct-19 07:30N 49°58' W 002°53'713.8
2017-Oct-19 07:00N 50°00' W 002°42'1813.4
2017-Oct-19 05:38N 50°08' W 002°17'914.2
2017-Oct-19 05:03N 50°11' W 002°05'515.0
2017-Oct-19 04:42N 50°14' W 001°58'1116.0
2017-Oct-19 03:59N 50°19' W 001°42'1117.3
2017-Oct-19 03:21N 50°24' W 001°27'718.1
2017-Oct-19 02:57N 50°27' W 001°16'818.7
2017-Oct-19 02:30N 50°31' W 001°05'816.0
2017-Oct-19 02:01N 50°38' W 000°58'510.1
2017-Oct-19 01:30N 50°43' W 000°59'714.7
2017-Oct-19 01:01N 50°46' W 001°09'612.4
2017-Oct-19 00:31N 50°47' W 001°19'5 9.3
2017-Oct-19 00:00N 50°51' W 001°21'3 5.2
2017-Oct-18 23:30N 50°53' W 001°24'0 0.0
2017-Oct-18 22:09N 50°53' W 001°24'0 0.0
2017-Oct-18 12:15N 50°53' W 001°24'0 0.0
2017-Oct-18 11:45N 50°53' W 001°24'0 0.0
2017-Oct-18 11:27N 50°53' W 001°24'0 0.0
2017-Oct-18 11:00N 50°53' W 001°24'0 0.0
2017-Oct-18 10:24N 50°53' W 001°24'0 0.0
2017-Oct-18 09:57N 50°53' W 001°24'1 3.1
2017-Oct-18 09:30N 50°52' W 001°23'510.3
2017-Oct-18 09:00N 50°48' W 001°18'510.5
2017-Oct-18 08:30N 50°46' W 001°11'815.4
2017-Oct-18 08:01N 50°43' W 000°59'4 8.6
2017-Oct-18 07:31N 50°40' W 000°55'2 3.4
2017-Oct-18 07:01N 50°39' W 000°53'3 5.3
2017-Oct-18 06:31N 50°37' W 000°49'3 5.4
2017-Oct-18 06:01N 50°36' W 000°45'3 5.2
2017-Oct-18 05:30N 50°35' W 000°41'3 6.6
2017-Oct-18 05:01N 50°34' W 000°36'4 7.6
2017-Oct-18 04:30N 50°33' W 000°31'4 8.3
2017-Oct-18 04:00N 50°33' W 000°24'5 8.9
2017-Oct-18 03:30N 50°32' W 000°17'714.5
2017-Oct-18 03:00N 50°32' W 000°06'917.2
2017-Oct-18 02:30N 50°33' E 000°08'917.4
2017-Oct-18 02:01N 50°35' E 000°21'917.2
2017-Oct-18 01:31N 50°37' E 000°34'816.6
2017-Oct-18 01:01N 50°41' E 000°45'816.1
2017-Oct-18 00:30N 50°45' E 000°57'815.2
2017-Oct-18 00:01N 50°50' E 001°06'714.5
2017-Oct-17 23:30N 50°55' E 001°14'713.6
2017-Oct-17 23:00N 51°00' E 001°21'612.8
2017-Oct-17 22:30N 51°04' E 001°29'612.2
2017-Oct-17 22:00N 51°07' E 001°38'713.7
2017-Oct-17 21:31N 51°12' E 001°45'714.8
2017-Oct-17 21:01N 51°18' E 001°53'815.8
2017-Oct-17 20:30N 51°25' E 001°59'714.7
2017-Oct-17 20:01N 51°22' E 002°10'815.9
2017-Oct-17 19:30N 51°21' E 002°22'816.9
2017-Oct-17 19:00N 51°22' E 002°36'713.3
2017-Oct-17 18:30N 51°22' E 002°46'714.3
2017-Oct-17 18:00N 51°23' E 002°58'714.5
2017-Oct-17 17:30N 51°24' E 003°09'815.9
2017-Oct-17 17:00N 51°25' E 003°22'815.5
2017-Oct-17 16:31N 51°26' E 003°34'510.5
2017-Oct-17 16:00N 51°25' E 003°42'714.0
2017-Oct-17 15:30N 51°21' E 003°51'713.8
2017-Oct-17 15:00N 51°26' E 003°59'611.5
2017-Oct-17 14:30N 51°22' E 004°05'510.2
2017-Oct-17 14:00N 51°22' E 004°14'4 8.3
2017-Oct-17 13:30N 51°18' E 004°16'1 2.7
2017-Oct-17 13:00N 51°17' E 004°15'0 0.2
2017-Oct-17 12:30N 51°17' E 004°15'1 2.2
2017-Oct-17 11:59N 51°16' E 004°13'0 0.0
2017-Oct-17 11:29N 51°16' E 004°13'0 0.0
2017-Oct-17 10:59N 51°16' E 004°13'0 0.0
2017-Oct-17 10:29N 51°16' E 004°13'0 0.0
2017-Oct-17 09:59N 51°16' E 004°13'0 0.0
2017-Oct-17 09:29N 51°16' E 004°13'0 0.0
2017-Oct-17 08:59N 51°16' E 004°13'0 0.0
2017-Oct-17 08:29N 51°16' E 004°13'0 0.0
2017-Oct-17 07:56N 51°16' E 004°13'0 0.0
2017-Oct-17 07:29N 51°16' E 004°13'0 0.0
2017-Oct-17 06:59N 51°16' E 004°13'0 0.0
2017-Oct-17 06:29N 51°16' E 004°13'0 0.0
2017-Oct-17 05:56N 51°16' E 004°13'0 0.0
2017-Oct-17 05:29N 51°16' E 004°13'0 0.0
2017-Oct-17 04:59N 51°16' E 004°13'0 0.0
2017-Oct-17 04:29N 51°16' E 004°13'0 0.0
2017-Oct-17 03:59N 51°16' E 004°13'0 0.0
2017-Oct-17 03:29N 51°16' E 004°13'0 0.0
2017-Oct-17 02:59N 51°16' E 004°13'0 0.0
2017-Oct-17 02:29N 51°16' E 004°13'0 0.0
2017-Oct-17 01:59N 51°16' E 004°13'0 0.0
2017-Oct-17 01:29N 51°16' E 004°13'0 0.0
2017-Oct-17 00:59N 51°16' E 004°13'0 0.0
2017-Oct-17 00:29N 51°16' E 004°13'0 0.0
2017-Oct-16 23:59N 51°16' E 004°13'0 0.0
2017-Oct-16 23:29N 51°16' E 004°13'0 0.0
2017-Oct-16 22:59N 51°16' E 004°13'0 0.0
2017-Oct-16 22:29N 51°16' E 004°13'1 1.1
2017-Oct-16 22:00N 51°17' E 004°14'1 1.4
2017-Oct-16 21:30N 51°17' E 004°15'0 0.0
2017-Oct-16 21:00N 51°17' E 004°15'1 1.1
2017-Oct-16 20:30N 51°17' E 004°15'2 4.6
2017-Oct-16 20:00N 51°19' E 004°16'4 8.8
2017-Oct-16 19:30N 51°23' E 004°13'611.6
2017-Oct-16 19:00N 51°22' E 004°04'4 8.9
2017-Oct-16 18:31N 51°25' E 003°58'612.2
2017-Oct-16 18:00N 51°21' E 003°51'611.8
2017-Oct-16 17:30N 51°24' E 003°43'5 9.3
2017-Oct-16 17:00N 51°26' E 003°36'4 7.9
2017-Oct-16 16:30N 51°25' E 003°30'713.8
2017-Oct-16 16:01N 51°24' E 003°19'713.7
2017-Oct-16 15:30N 51°24' E 003°08'612.1
2017-Oct-16 15:00N 51°28' E 003°01'816.2
2017-Oct-16 14:30N 51°34' E 003°09'1312.5
2017-Oct-16 13:29N 51°46' E 003°16'1612.3
2017-Oct-16 12:11N 52°02' E 003°21'314.2
2017-Oct-16 12:00N 52°04' E 003°22'714.3
2017-Oct-16 11:30N 52°11' E 003°24'714.3
2017-Oct-16 11:00N 52°18' E 003°25'714.6
2017-Oct-16 10:30N 52°26' E 003°27'815.2
2017-Oct-16 10:00N 52°33' E 003°29'815.4
2017-Oct-16 09:30N 52°40' E 003°35'816.1
2017-Oct-16 08:59N 52°46' E 003°44'816.5
2017-Oct-16 08:30N 52°52' E 003°52'1216.5
2017-Oct-16 07:48N 53°00' E 004°07'516.4
2017-Oct-16 07:29N 53°03' E 004°13'3115.8
2017-Oct-16 05:31N 53°29' E 004°43'015.6
2017-Oct-16 05:30N 53°29' E 004°43'815.3
2017-Oct-16 05:00N 53°32' E 004°55'815.0
2017-Oct-16 04:30N 53°35' E 005°07'714.6
2017-Oct-16 04:00N 53°37' E 005°19'814.2
2017-Oct-16 03:24N 53°40' E 005°32'614.4
2017-Oct-16 03:00N 53°42' E 005°41'814.8
2017-Oct-16 02:26N 53°44' E 005°55'7515.1
2017-Oct-15 21:29N 53°51' E 008°01'816.1
2017-Oct-15 21:00N 53°46' E 008°11'815.7
2017-Oct-15 20:31N 53°41' E 008°21'713.9
2017-Oct-15 20:00N 53°37' E 008°30'3 6.7
2017-Oct-15 19:30N 53°34' E 008°33'0 0.9
2017-Oct-15 19:00N 53°34' E 008°33'0 0.9
2017-Oct-15 18:28N 53°35' E 008°33'0 0.0
2017-Oct-15 17:58N 53°35' E 008°33'0 0.0
2017-Oct-15 17:22N 53°35' E 008°33'0 0.0
2017-Oct-15 16:55N 53°35' E 008°33'0 0.0
2017-Oct-15 16:28N 53°35' E 008°33'0 0.0
2017-Oct-15 15:58N 53°35' E 008°33'0 0.0
2017-Oct-15 15:28N 53°35' E 008°33'0 0.0
2017-Oct-15 14:58N 53°35' E 008°33'0 0.0
2017-Oct-15 13:58N 53°35' E 008°33'0 0.0
2017-Oct-15 13:28N 53°35' E 008°33'0 0.0
2017-Oct-15 12:58N 53°35' E 008°33'0 0.0
2017-Oct-15 12:28N 53°35' E 008°33'0 0.0
2017-Oct-15 11:58N 53°35' E 008°33'0 0.0
2017-Oct-15 11:28N 53°35' E 008°33'0 0.0
2017-Oct-15 10:58N 53°35' E 008°33'0 0.0
2017-Oct-15 10:28N 53°35' E 008°33'0 0.0
2017-Oct-15 09:58N 53°35' E 008°33'0 0.0
2017-Oct-15 09:28N 53°35' E 008°33'0 0.0
2017-Oct-15 08:58N 53°35' E 008°33'0 0.0
2017-Oct-15 08:25N 53°35' E 008°33'0 0.0
2017-Oct-15 07:58N 53°35' E 008°33'0 0.0
2017-Oct-15 07:28N 53°35' E 008°33'0 0.0
2017-Oct-15 06:58N 53°35' E 008°33'0 0.0
2017-Oct-15 06:28N 53°35' E 008°33'0 0.0
2017-Oct-15 05:58N 53°35' E 008°33'0 0.0
2017-Oct-15 05:28N 53°35' E 008°33'0 0.0
2017-Oct-15 04:58N 53°35' E 008°33'0 0.0
2017-Oct-15 04:28N 53°35' E 008°33'0 0.0
2017-Oct-15 03:58N 53°35' E 008°33'0 0.0
2017-Oct-15 03:28N 53°35' E 008°33'0 0.0
2017-Oct-15 02:58N 53°35' E 008°33'0 0.0
2017-Oct-15 02:28N 53°35' E 008°33'0 0.0
2017-Oct-15 01:58N 53°35' E 008°33'0 0.0
2017-Oct-15 01:28N 53°35' E 008°33'0 0.0
2017-Oct-15 00:58N 53°35' E 008°33'0 0.0
2017-Oct-15 00:28N 53°35' E 008°33'0 0.0
2017-Oct-14 23:58N 53°35' E 008°33'0 0.0
2017-Oct-14 23:28N 53°35' E 008°33'0 0.0
2017-Oct-14 22:58N 53°35' E 008°33'0 0.0
2017-Oct-14 22:28N 53°35' E 008°33'0 0.0
2017-Oct-14 21:58N 53°35' E 008°33'0 0.0
2017-Oct-14 21:28N 53°35' E 008°33'0 0.0
2017-Oct-14 20:58N 53°35' E 008°33'0 0.0
2017-Oct-14 20:28N 53°35' E 008°33'0 0.0
2017-Oct-14 19:58N 53°35' E 008°33'0 0.0
2017-Oct-14 19:28N 53°35' E 008°33'0 0.0
2017-Oct-14 18:58N 53°35' E 008°33'0 0.0
2017-Oct-14 18:28N 53°35' E 008°33'0 0.0
2017-Oct-14 17:58N 53°35' E 008°33'0 0.0
2017-Oct-14 17:28N 53°35' E 008°33'0 0.0
2017-Oct-14 16:58N 53°35' E 008°33'0 0.0
2017-Oct-14 16:28N 53°35' E 008°33'0 0.0
2017-Oct-14 15:58N 53°35' E 008°33'0 0.0
2017-Oct-14 15:28N 53°35' E 008°33'0 0.0
2017-Oct-14 14:58N 53°35' E 008°33'0 0.0
2017-Oct-14 14:28N 53°35' E 008°33'0 0.0
2017-Oct-14 13:58N 53°35' E 008°33'0 0.0
2017-Oct-14 13:28N 53°35' E 008°33'0 0.0
2017-Oct-14 12:58N 53°35' E 008°33'0 0.2
2017-Oct-14 12:30N 53°35' E 008°33'0 0.7
2017-Oct-14 12:00N 53°34' E 008°33'1 2.9
2017-Oct-14 11:30N 53°35' E 008°31'612.7
2017-Oct-14 11:00N 53°40' E 008°23'714.5
2017-Oct-14 10:31N 53°44' E 008°14'814.7
2017-Oct-14 09:58N 53°50' E 008°05'92 6.3
2017-Oct-13 19:16N 53°35' E 005°31'415.6
2017-Oct-13 19:00N 53°33' E 005°24'815.5
2017-Oct-13 18:30N 53°31' E 005°12'815.7
2017-Oct-13 18:00N 53°28' E 004°59'815.5
2017-Oct-13 17:30N 53°25' E 004°48'714.4
2017-Oct-13 17:00N 53°20' E 004°39'815.4
2017-Oct-13 16:27N 53°12' E 004°34'715.3
2017-Oct-13 16:00N 53°06' E 004°28'815.4
2017-Oct-13 15:30N 52°60' E 004°21'815.2
2017-Oct-13 15:00N 52°53' E 004°16'714.8
2017-Oct-13 14:30N 52°46' E 004°10'815.4
2017-Oct-13 14:00N 52°41' E 004°02'815.5
2017-Oct-13 13:30N 52°35' E 003°52'815.7
2017-Oct-13 13:00N 52°30' E 003°42'815.9
2017-Oct-13 12:28N 52°24' E 003°32'1416.3
2017-Oct-13 11:37N 52°14' E 003°16'216.5
2017-Oct-13 11:28N 52°13' E 003°14'816.6
2017-Oct-13 11:00N 52°07' E 003°05'916.8
2017-Oct-13 10:29N 52°00' E 002°56'816.9
2017-Oct-13 09:59N 51°54' E 002°47'3117.3
2017-Oct-13 08:10N 51°30' E 002°15'317.6
2017-Oct-13 08:00N 51°28' E 002°12'816.9
2017-Oct-13 07:30N 51°20' E 002°07'816.7
2017-Oct-13 07:00N 51°12' E 002°01'917.9
2017-Oct-13 06:30N 51°08' E 001°49'918.5
2017-Oct-13 06:00N 51°02' E 001°37'1018.4
2017-Oct-13 05:29N 50°55' E 001°27'1017.8
2017-Oct-13 04:56N 50°46' E 001°21'1416.1
2017-Oct-13 04:05N 50°35' E 001°08'317.1
2017-Oct-13 03:56N 50°33' E 001°05'816.7
2017-Oct-13 03:27N 50°29' E 000°54'1317.3
2017-Oct-13 02:42N 50°25' E 000°35'  
Track history (hours):
 
Tides and Currents Weather Stations Pressure Air Temp Water Temp Dewpoint Dewpoint Depression Visibility Wind Speed Wind Dir Waves Ship Positions

Heroic Leader

Last reported at 2017-Oct-23 02:41 UTC. Time now 2017-Oct-23 06:19 UTC.
Position N 37°45' W 000°21'.

Length 200 m; draft 9.5 m.

Type: Cargo ship. MMSI: 311052700.

Date/timePositionNaut miles runAvg speedWind from/ knotsBaromVisibWave heightAir tempDewpointWater temp
2017-Oct-23 02:41N 37°45' W 000°21'319.4
2017-Oct-23 02:30N 37°42' W 000°23'1019.4
2017-Oct-23 02:00N 37°34' W 000°30'1019.2
2017-Oct-23 01:30N 37°27' W 000°39'1019.1
2017-Oct-23 01:00N 37°21' W 000°48'1119.2
2017-Oct-23 00:25N 37°13' W 000°59'21918.9
2017-Oct-22 12:47N 35°59' W 005°16'518.5
2017-Oct-22 12:30N 35°58' W 005°22'259 9.2
2017-Oct-21 08:16N 38°14' W 009°58'518.3
2017-Oct-21 08:00N 38°19' W 009°59'917.9
2017-Oct-21 07:30N 38°28' W 010°02'917.5
2017-Oct-21 07:00N 38°36' W 010°04'917.6
2017-Oct-21 06:30N 38°45' W 010°06'917.6
2017-Oct-21 06:00N 38°54' W 010°06'918.2
2017-Oct-21 05:30N 39°03' W 010°06'918.3
2017-Oct-21 05:00N 39°12' W 010°06'1217.9
2017-Oct-21 04:22N 39°23' W 010°06'66815.9
2017-Oct-19 10:26N 49°36' W 003°55'1216.7
2017-Oct-19 09:45N 49°42' W 003°40'616.3
2017-Oct-19 09:24N 49°45' W 003°32'615.9
2017-Oct-19 09:00N 49°48' W 003°24'815.2
2017-Oct-19 08:30N 49°52' W 003°13'714.7
2017-Oct-19 08:00N 49°55' W 003°03'714.3
2017-Oct-19 07:30N 49°58' W 002°53'713.8
2017-Oct-19 07:00N 50°00' W 002°42'1813.4
2017-Oct-19 05:38N 50°08' W 002°17'914.2
2017-Oct-19 05:03N 50°11' W 002°05'515.0
2017-Oct-19 04:42N 50°14' W 001°58'1116.0
2017-Oct-19 03:59N 50°19' W 001°42'1117.3
2017-Oct-19 03:21N 50°24' W 001°27'718.1
2017-Oct-19 02:57N 50°27' W 001°16'818.7
2017-Oct-19 02:30N 50°31' W 001°05'816.0
2017-Oct-19 02:01N 50°38' W 000°58'510.1
2017-Oct-19 01:30N 50°43' W 000°59'714.7
2017-Oct-19 01:01N 50°46' W 001°09'612.4
2017-Oct-19 00:31N 50°47' W 001°19'5 9.3
2017-Oct-19 00:00N 50°51' W 001°21'3 5.2
2017-Oct-18 23:30N 50°53' W 001°24'0 0.0
2017-Oct-18 22:09N 50°53' W 001°24'0 0.0
2017-Oct-18 12:15N 50°53' W 001°24'0 0.0
2017-Oct-18 11:45N 50°53' W 001°24'0 0.0
2017-Oct-18 11:27N 50°53' W 001°24'0 0.0
2017-Oct-18 11:00N 50°53' W 001°24'0 0.0
2017-Oct-18 10:24N 50°53' W 001°24'0 0.0
2017-Oct-18 09:57N 50°53' W 001°24'1 3.1
2017-Oct-18 09:30N 50°52' W 001°23'510.3
2017-Oct-18 09:00N 50°48' W 001°18'510.5
2017-Oct-18 08:30N 50°46' W 001°11'815.4
2017-Oct-18 08:01N 50°43' W 000°59'4 8.6
2017-Oct-18 07:31N 50°40' W 000°55'2 3.4
2017-Oct-18 07:01N 50°39' W 000°53'3 5.3
2017-Oct-18 06:31N 50°37' W 000°49'3 5.4
2017-Oct-18 06:01N 50°36' W 000°45'3 5.2
2017-Oct-18 05:30N 50°35' W 000°41'3 6.6
2017-Oct-18 05:01N 50°34' W 000°36'4 7.6
2017-Oct-18 04:30N 50°33' W 000°31'4 8.3
2017-Oct-18 04:00N 50°33' W 000°24'5 8.9
2017-Oct-18 03:30N 50°32' W 000°17'714.5
2017-Oct-18 03:00N 50°32' W 000°06'917.2
2017-Oct-18 02:30N 50°33' E 000°08'917.4
2017-Oct-18 02:01N 50°35' E 000°21'917.2
2017-Oct-18 01:31N 50°37' E 000°34'816.6
2017-Oct-18 01:01N 50°41' E 000°45'816.1
2017-Oct-18 00:30N 50°45' E 000°57'815.2
2017-Oct-18 00:01N 50°50' E 001°06'714.5
2017-Oct-17 23:30N 50°55' E 001°14'713.6
2017-Oct-17 23:00N 51°00' E 001°21'612.8
2017-Oct-17 22:30N 51°04' E 001°29'612.2
2017-Oct-17 22:00N 51°07' E 001°38'713.7
2017-Oct-17 21:31N 51°12' E 001°45'714.8
2017-Oct-17 21:01N 51°18' E 001°53'815.8
2017-Oct-17 20:30N 51°25' E 001°59'714.7
2017-Oct-17 20:01N 51°22' E 002°10'815.9
2017-Oct-17 19:30N 51°21' E 002°22'816.9
2017-Oct-17 19:00N 51°22' E 002°36'713.3
2017-Oct-17 18:30N 51°22' E 002°46'714.3
2017-Oct-17 18:00N 51°23' E 002°58'714.5
2017-Oct-17 17:30N 51°24' E 003°09'815.9
2017-Oct-17 17:00N 51°25' E 003°22'815.5
2017-Oct-17 16:31N 51°26' E 003°34'510.5
2017-Oct-17 16:00N 51°25' E 003°42'714.0
2017-Oct-17 15:30N 51°21' E 003°51'713.8
2017-Oct-17 15:00N 51°26' E 003°59'611.5
2017-Oct-17 14:30N 51°22' E 004°05'510.2
2017-Oct-17 14:00N 51°22' E 004°14'4 8.3
2017-Oct-17 13:30N 51°18' E 004°16'1 2.7
2017-Oct-17 13:00N 51°17' E 004°15'0 0.2
2017-Oct-17 12:30N 51°17' E 004°15'1 2.2
2017-Oct-17 11:59N 51°16' E 004°13'0 0.0
2017-Oct-17 11:29N 51°16' E 004°13'0 0.0
2017-Oct-17 10:59N 51°16' E 004°13'0 0.0
2017-Oct-17 10:29N 51°16' E 004°13'0 0.0
2017-Oct-17 09:59N 51°16' E 004°13'0 0.0
2017-Oct-17 09:29N 51°16' E 004°13'0 0.0
2017-Oct-17 08:59N 51°16' E 004°13'0 0.0
2017-Oct-17 08:29N 51°16' E 004°13'0 0.0
2017-Oct-17 07:56N 51°16' E 004°13'0 0.0
2017-Oct-17 07:29N 51°16' E 004°13'0 0.0
2017-Oct-17 06:59N 51°16' E 004°13'0 0.0
2017-Oct-17 06:29N 51°16' E 004°13'0 0.0
2017-Oct-17 05:56N 51°16' E 004°13'0 0.0
2017-Oct-17 05:29N 51°16' E 004°13'0 0.0
2017-Oct-17 04:59N 51°16' E 004°13'0 0.0
2017-Oct-17 04:29N 51°16' E 004°13'0 0.0
2017-Oct-17 03:59N 51°16' E 004°13'0 0.0
2017-Oct-17 03:29N 51°16' E 004°13'0 0.0
2017-Oct-17 02:59N 51°16' E 004°13'0 0.0
2017-Oct-17 02:29N 51°16' E 004°13'0 0.0
2017-Oct-17 01:59N 51°16' E 004°13'0 0.0
2017-Oct-17 01:29N 51°16' E 004°13'0 0.0
2017-Oct-17 00:59N 51°16' E 004°13'0 0.0
2017-Oct-17 00:29N 51°16' E 004°13'0 0.0
2017-Oct-16 23:59N 51°16' E 004°13'0 0.0
2017-Oct-16 23:29N 51°16' E 004°13'0 0.0
2017-Oct-16 22:59N 51°16' E 004°13'0 0.0
2017-Oct-16 22:29N 51°16' E 004°13'1 1.1
2017-Oct-16 22:00N 51°17' E 004°14'1 1.4
2017-Oct-16 21:30N 51°17' E 004°15'0 0.0
2017-Oct-16 21:00N 51°17' E 004°15'1 1.1
2017-Oct-16 20:30N 51°17' E 004°15'2 4.6
2017-Oct-16 20:00N 51°19' E 004°16'4 8.8
2017-Oct-16 19:30N 51°23' E 004°13'611.6
2017-Oct-16 19:00N 51°22' E 004°04'4 8.9
2017-Oct-16 18:31N 51°25' E 003°58'612.2
2017-Oct-16 18:00N 51°21' E 003°51'611.8
2017-Oct-16 17:30N 51°24' E 003°43'5 9.3
2017-Oct-16 17:00N 51°26' E 003°36'4 7.9
2017-Oct-16 16:30N 51°25' E 003°30'713.8
2017-Oct-16 16:01N 51°24' E 003°19'713.7
2017-Oct-16 15:30N 51°24' E 003°08'612.1
2017-Oct-16 15:00N 51°28' E 003°01'816.2
2017-Oct-16 14:30N 51°34' E 003°09'1312.5
2017-Oct-16 13:29N 51°46' E 003°16'1612.3
2017-Oct-16 12:11N 52°02' E 003°21'314.2
2017-Oct-16 12:00N 52°04' E 003°22'714.3
2017-Oct-16 11:30N 52°11' E 003°24'714.3
2017-Oct-16 11:00N 52°18' E 003°25'714.6
2017-Oct-16 10:30N 52°26' E 003°27'815.2
2017-Oct-16 10:00N 52°33' E 003°29'815.4
2017-Oct-16 09:30N 52°40' E 003°35'816.1
2017-Oct-16 08:59N 52°46' E 003°44'816.5
2017-Oct-16 08:30N 52°52' E 003°52'1216.5
2017-Oct-16 07:48N 53°00' E 004°07'516.4
2017-Oct-16 07:29N 53°03' E 004°13'3115.8
2017-Oct-16 05:31N 53°29' E 004°43'015.6
2017-Oct-16 05:30N 53°29' E 004°43'815.3
2017-Oct-16 05:00N 53°32' E 004°55'815.0
2017-Oct-16 04:30N 53°35' E 005°07'714.6
2017-Oct-16 04:00N 53°37' E 005°19'814.2
2017-Oct-16 03:24N 53°40' E 005°32'614.4
2017-Oct-16 03:00N 53°42' E 005°41'814.8
2017-Oct-16 02:26N 53°44' E 005°55'7515.1
2017-Oct-15 21:29N 53°51' E 008°01'816.1
2017-Oct-15 21:00N 53°46' E 008°11'815.7
2017-Oct-15 20:31N 53°41' E 008°21'713.9
2017-Oct-15 20:00N 53°37' E 008°30'3 6.7
2017-Oct-15 19:30N 53°34' E 008°33'0 0.9
2017-Oct-15 19:00N 53°34' E 008°33'0 0.9
2017-Oct-15 18:28N 53°35' E 008°33'0 0.0
2017-Oct-15 17:58N 53°35' E 008°33'0 0.0
2017-Oct-15 17:22N 53°35' E 008°33'0 0.0
2017-Oct-15 16:55N 53°35' E 008°33'0 0.0
2017-Oct-15 16:28N 53°35' E 008°33'0 0.0
2017-Oct-15 15:58N 53°35' E 008°33'0 0.0
2017-Oct-15 15:28N 53°35' E 008°33'0 0.0
2017-Oct-15 14:58N 53°35' E 008°33'0 0.0
2017-Oct-15 13:58N 53°35' E 008°33'0 0.0
2017-Oct-15 13:28N 53°35' E 008°33'0 0.0
2017-Oct-15 12:58N 53°35' E 008°33'0 0.0
2017-Oct-15 12:28N 53°35' E 008°33'0 0.0
2017-Oct-15 11:58N 53°35' E 008°33'0 0.0
2017-Oct-15 11:28N 53°35' E 008°33'0 0.0
2017-Oct-15 10:58N 53°35' E 008°33'0 0.0
2017-Oct-15 10:28N 53°35' E 008°33'0 0.0
2017-Oct-15 09:58N 53°35' E 008°33'0 0.0
2017-Oct-15 09:28N 53°35' E 008°33'0 0.0
2017-Oct-15 08:58N 53°35' E 008°33'0 0.0
2017-Oct-15 08:25N 53°35' E 008°33'0 0.0
2017-Oct-15 07:58N 53°35' E 008°33'0 0.0
2017-Oct-15 07:28N 53°35' E 008°33'0 0.0
2017-Oct-15 06:58N 53°35' E 008°33'0 0.0
2017-Oct-15 06:28N 53°35' E 008°33'0 0.0
2017-Oct-15 05:58N 53°35' E 008°33'0 0.0
2017-Oct-15 05:28N 53°35' E 008°33'0 0.0
2017-Oct-15 04:58N 53°35' E 008°33'0 0.0
2017-Oct-15 04:28N 53°35' E 008°33'0 0.0
2017-Oct-15 03:58N 53°35' E 008°33'0 0.0
2017-Oct-15 03:28N 53°35' E 008°33'0 0.0
2017-Oct-15 02:58N 53°35' E 008°33'0 0.0
2017-Oct-15 02:28N 53°35' E 008°33'0 0.0
2017-Oct-15 01:58N 53°35' E 008°33'0 0.0
2017-Oct-15 01:28N 53°35' E 008°33'0 0.0
2017-Oct-15 00:58N 53°35' E 008°33'0 0.0
2017-Oct-15 00:28N 53°35' E 008°33'0 0.0
2017-Oct-14 23:58N 53°35' E 008°33'0 0.0
2017-Oct-14 23:28N 53°35' E 008°33'0 0.0
2017-Oct-14 22:58N 53°35' E 008°33'0 0.0
2017-Oct-14 22:28N 53°35' E 008°33'0 0.0
2017-Oct-14 21:58N 53°35' E 008°33'0 0.0
2017-Oct-14 21:28N 53°35' E 008°33'0 0.0
2017-Oct-14 20:58N 53°35' E 008°33'0 0.0
2017-Oct-14 20:28N 53°35' E 008°33'0 0.0
2017-Oct-14 19:58N 53°35' E 008°33'0 0.0
2017-Oct-14 19:28N 53°35' E 008°33'0 0.0
2017-Oct-14 18:58N 53°35' E 008°33'0 0.0
2017-Oct-14 18:28N 53°35' E 008°33'0 0.0
2017-Oct-14 17:58N 53°35' E 008°33'0 0.0
2017-Oct-14 17:28N 53°35' E 008°33'0 0.0
2017-Oct-14 16:58N 53°35' E 008°33'0 0.0
2017-Oct-14 16:28N 53°35' E 008°33'0 0.0
2017-Oct-14 15:58N 53°35' E 008°33'0 0.0
2017-Oct-14 15:28N 53°35' E 008°33'0 0.0
2017-Oct-14 14:58N 53°35' E 008°33'0 0.0
2017-Oct-14 14:28N 53°35' E 008°33'0 0.0
2017-Oct-14 13:58N 53°35' E 008°33'0 0.0
2017-Oct-14 13:28N 53°35' E 008°33'0 0.0
2017-Oct-14 12:58N 53°35' E 008°33'0 0.2
2017-Oct-14 12:30N 53°35' E 008°33'0 0.7
2017-Oct-14 12:00N 53°34' E 008°33'1 2.9
2017-Oct-14 11:30N 53°35' E 008°31'612.7
2017-Oct-14 11:00N 53°40' E 008°23'714.5
2017-Oct-14 10:31N 53°44' E 008°14'814.7
2017-Oct-14 09:58N 53°50' E 008°05'92 6.3
2017-Oct-13 19:16N 53°35' E 005°31'415.6
2017-Oct-13 19:00N 53°33' E 005°24'815.5
2017-Oct-13 18:30N 53°31' E 005°12'815.7
2017-Oct-13 18:00N 53°28' E 004°59'815.5
2017-Oct-13 17:30N 53°25' E 004°48'714.4
2017-Oct-13 17:00N 53°20' E 004°39'815.4
2017-Oct-13 16:27N 53°12' E 004°34'715.3
2017-Oct-13 16:00N 53°06' E 004°28'815.4
2017-Oct-13 15:30N 52°60' E 004°21'815.2
2017-Oct-13 15:00N 52°53' E 004°16'714.8
2017-Oct-13 14:30N 52°46' E 004°10'815.4
2017-Oct-13 14:00N 52°41' E 004°02'815.5
2017-Oct-13 13:30N 52°35' E 003°52'815.7
2017-Oct-13 13:00N 52°30' E 003°42'815.9
2017-Oct-13 12:28N 52°24' E 003°32'1416.3
2017-Oct-13 11:37N 52°14' E 003°16'216.5
2017-Oct-13 11:28N 52°13' E 003°14'816.6
2017-Oct-13 11:00N 52°07' E 003°05'916.8
2017-Oct-13 10:29N 52°00' E 002°56'816.9
2017-Oct-13 09:59N 51°54' E 002°47'3117.3
2017-Oct-13 08:10N 51°30' E 002°15'317.6
2017-Oct-13 08:00N 51°28' E 002°12'816.9
2017-Oct-13 07:30N 51°20' E 002°07'816.7
2017-Oct-13 07:00N 51°12' E 002°01'917.9
2017-Oct-13 06:30N 51°08' E 001°49'918.5
2017-Oct-13 06:00N 51°02' E 001°37'1018.4
2017-Oct-13 05:29N 50°55' E 001°27'1017.8
2017-Oct-13 04:56N 50°46' E 001°21'1416.1
2017-Oct-13 04:05N 50°35' E 001°08'317.1
2017-Oct-13 03:56N 50°33' E 001°05'816.7
2017-Oct-13 03:27N 50°29' E 000°54'1317.3
2017-Oct-13 02:42N 50°25' E 000°35'  

Dump ship's entire track history